Time;durP1;ratioP1;P1;durP2;ratioP2;P2;SDS_P1;SDS_P2;PMS_P1;PMS_P2;Temp;Humidity;BMP_temperature;BMP_pressure;BME280_temperature;BME280_humidity;BME280_pressure;Samples;Min_cycle;Max_cycle;Signal;HPM_P1;HPM_P2
2022/05/14 00:05:05;;;;;;;0.98;0.70;;;17.10;51.90;19.20;94335.00;;;;10501457;22;45247;-60
2022/05/14 00:10:29;;;;;;;1.42;0.98;;;17.10;51.90;19.20;94338.00;;;;10526562;28;45219;-60
2022/05/14 00:15:51;;;;;;;0.80;0.80;;;17.10;51.90;19.20;94343.00;;;;10502370;28;45251;-60
2022/05/14 00:21:13;;;;;;;0.70;0.70;;;17.10;51.90;19.10;94330.00;;;;10484176;28;45780;-62
2022/05/14 00:26:36;;;;;;;1.33;0.80;;;17.10;51.80;19.10;94334.00;;;;10483841;28;45190;-60
2022/05/14 00:31:56;;;;;;;1.20;0.80;;;17.10;51.80;19.10;94329.00;;;;10484668;28;45210;-60
2022/05/14 00:37:17;;;;;;;0.73;0.70;;;17.10;51.80;19.10;94331.00;;;;10483756;28;45210;-60
2022/05/14 00:42:39;;;;;;;0.95;0.73;;;17.10;51.90;19.10;94329.00;;;;10483879;28;45132;-60
2022/05/14 00:48:01;;;;;;;0.70;0.70;;;17.10;51.80;19.10;94335.00;;;;10482820;28;45156;-61
2022/05/14 00:53:25;;;;;;;1.05;0.80;;;17.10;51.80;19.10;94332.00;;;;10483287;28;45282;-60
2022/05/14 00:58:53;;;;;;;0.93;0.63;;;17.10;51.80;19.10;94320.00;;;;10481261;28;45195;-62
2022/05/14 01:04:14;;;;;;;1.08;0.70;;;17.10;51.80;19.10;94334.00;;;;10477771;28;45301;-61
2022/05/14 01:09:36;;;;;;;0.82;0.70;;;17.10;51.70;19.10;94336.00;;;;10481869;28;45669;-60
2022/05/14 01:15:11;;;;;;;1.00;0.80;;;17.00;51.80;19.10;94315.00;;;;10482723;28;45672;-60
2022/05/14 01:20:35;;;;;;;2.03;0.70;;;17.00;51.70;19.10;94316.00;;;;10482699;28;46120;-61
2022/05/14 01:26:31;;;;;;;1.10;0.70;;;17.10;51.70;19.10;94325.00;;;;10482275;28;45405;-60
2022/05/14 01:31:54;;;;;;;1.35;0.80;;;17.10;51.70;19.10;94325.00;;;;10481934;28;45256;-61
2022/05/14 01:37:15;;;;;;;1.83;0.70;;;17.00;51.70;19.10;94324.00;;;;10481862;28;45186;-60
2022/05/14 01:42:37;;;;;;;1.38;0.73;;;17.10;51.60;19.10;94321.00;;;;10481622;28;45263;-60
2022/05/14 01:47:58;;;;;;;0.65;0.55;;;17.00;51.60;19.10;94316.00;;;;10480924;28;45162;-60
2022/05/14 01:53:18;;;;;;;0.70;0.70;;;17.00;51.60;19.10;94321.00;;;;10480780;28;45792;-60
2022/05/14 01:58:40;;;;;;;0.85;0.63;;;17.00;51.60;19.10;94316.00;;;;10481050;28;45672;-60
2022/05/14 02:04:04;;;;;;;1.30;0.80;;;17.00;51.50;19.10;94314.00;;;;10480217;28;45218;-60
2022/05/14 02:09:25;;;;;;;1.10;0.80;;;17.00;51.60;19.10;94307.00;;;;10478015;28;45480;-60
2022/05/14 02:14:47;;;;;;;0.68;0.60;;;17.00;51.50;19.10;94312.00;;;;10478015;28;45391;-60
2022/05/14 02:20:09;;;;;;;1.20;0.73;;;17.00;51.50;19.10;94298.00;;;;10477642;28;45214;-60
2022/05/14 02:25:30;;;;;;;0.70;0.60;;;17.00;51.50;19.10;94293.00;;;;10477518;28;45696;-60
2022/05/14 02:30:52;;;;;;;1.92;0.80;;;17.00;51.50;19.10;94304.00;;;;10476948;28;45197;-60
2022/05/14 02:36:12;;;;;;;1.02;0.80;;;17.00;51.50;19.10;94296.00;;;;10477224;28;45164;-60
2022/05/14 02:41:33;;;;;;;0.75;0.60;;;17.00;51.50;19.10;94301.00;;;;10476795;28;45205;-60
2022/05/14 02:46:54;;;;;;;1.23;0.70;;;17.00;51.50;19.10;94296.00;;;;10475986;28;45190;-60
2022/05/14 02:52:15;;;;;;;1.10;0.80;;;17.00;51.40;19.00;94291.00;;;;10476735;28;45134;-60
2022/05/14 02:57:36;;;;;;;0.90;0.70;;;17.00;51.50;19.00;94267.00;;;;10475591;28;45771;-60
2022/05/14 03:02:58;;;;;;;0.90;0.70;;;17.00;51.50;19.00;94277.00;;;;10476624;28;45182;-61
2022/05/14 03:08:29;;;;;;;1.05;0.70;;;17.00;51.50;19.00;94283.00;;;;10554550;27;45188;-62
2022/05/14 03:13:49;;;;;;;0.68;0.60;;;17.00;51.50;19.00;94288.00;;;;10512383;28;45294;-61
2022/05/14 03:19:10;;;;;;;0.57;0.57;;;17.00;51.50;19.00;94287.00;;;;10512148;28;45857;-61
2022/05/14 03:24:33;;;;;;;0.90;0.70;;;17.00;51.50;19.00;94302.00;;;;10512063;28;45095;-61
2022/05/14 03:29:54;;;;;;;0.75;0.63;;;17.00;51.40;19.00;94297.00;;;;10512058;28;45164;-62
2022/05/14 03:35:14;;;;;;;1.25;0.75;;;16.90;51.30;19.00;94290.00;;;;10512378;28;45719;-61
2022/05/14 03:40:36;;;;;;;1.05;0.65;;;17.00;51.40;19.00;94293.00;;;;10512127;28;45199;-61
2022/05/14 03:45:57;;;;;;;1.30;0.75;;;17.00;51.40;19.00;94300.00;;;;10511051;28;45231;-61
2022/05/14 03:51:17;;;;;;;0.85;0.55;;;16.90;51.40;19.00;94289.00;;;;10511582;28;45159;-61
2022/05/14 03:56:39;;;;;;;0.80;0.60;;;17.00;51.30;19.00;94303.00;;;;10511052;28;45224;-61
2022/05/14 04:02:00;;;;;;;1.23;0.70;;;17.00;51.30;19.00;94304.00;;;;10511255;28;45204;-61
2022/05/14 04:07:21;;;;;;;0.90;0.70;;;17.00;51.40;19.00;94302.00;;;;10510118;28;45210;-61
2022/05/14 04:12:43;;;;;;;0.60;0.57;;;16.90;51.30;19.10;94297.00;;;;10510833;28;45700;-62
2022/05/14 04:18:04;;;;;;;0.60;0.47;;;17.10;51.10;19.20;94307.00;;;;10492181;28;45738;-62
2022/05/14 04:23:28;;;;;;;0.75;0.50;;;17.20;51.00;19.30;94302.00;;;;10482557;28;45664;-61
2022/05/14 04:28:50;;;;;;;0.50;0.50;;;17.20;50.80;19.30;94302.00;;;;10481626;28;45222;-61
2022/05/14 04:34:11;;;;;;;1.60;0.47;;;17.30;50.70;19.30;94298.00;;;;10481891;28;45182;-62
2022/05/14 04:39:32;;;;;;;0.88;0.60;;;17.30;50.60;19.40;94299.00;;;;10481982;28;45305;-62
2022/05/14 04:44:54;;;;;;;0.55;0.47;;;17.30;50.50;19.40;94304.00;;;;10481630;28;45727;-61
2022/05/14 04:50:16;;;;;;;1.13;0.60;;;17.40;50.50;19.40;94298.00;;;;10481331;28;45850;-61
2022/05/14 04:55:37;;;;;;;0.55;0.55;;;17.40;50.40;19.50;94301.00;;;;10480741;28;45357;-61
2022/05/14 05:00:59;;;;;;;0.52;0.40;;;17.40;50.30;19.50;94303.00;;;;10481086;28;45239;-61
2022/05/14 05:06:23;;;;;;;0.90;0.60;;;17.50;50.20;19.50;94302.00;;;;10480236;28;45828;-61
2022/05/14 05:11:44;;;;;;;0.60;0.50;;;17.50;50.10;19.60;94296.00;;;;10480801;28;45165;-61
2022/05/14 05:17:07;;;;;;;0.60;0.60;;;17.50;50.10;19.60;94302.00;;;;10480104;28;45268;-61
2022/05/14 05:22:28;;;;;;;0.60;0.60;;;17.60;50.00;19.60;94315.00;;;;10480317;28;45235;-61
2022/05/14 05:27:48;;;;;;;0.50;0.47;;;17.50;49.90;19.60;94321.00;;;;10478538;28;45282;-61
2022/05/14 05:33:13;;;;;;;0.60;0.50;;;17.60;49.90;19.60;94315.00;;;;10479773;28;45234;-61
2022/05/14 05:38:33;;;;;;;0.88;0.60;;;17.60;49.90;19.60;94317.00;;;;10479753;28;45210;-61
2022/05/14 05:43:54;;;;;;;1.15;0.70;;;17.60;49.80;19.70;94319.00;;;;10479440;28;45797;-61
2022/05/14 05:49:15;;;;;;;1.48;0.50;;;17.60;49.70;19.70;94316.00;;;;10479705;28;45366;-62
2022/05/14 06:00:20;;;;;;;0.57;0.50;;;17.70;50.30;19.70;94310.00;;;;10478677;28;45099;-61
2022/05/14 06:05:42;;;;;;;0.63;0.50;;;17.70;49.60;19.80;94322.00;;;;10478639;28;45926;-61
2022/05/14 06:11:03;;;;;;;0.80;0.52;;;17.70;49.60;19.80;94318.00;;;;10478866;28;45134;-62
2022/05/14 06:16:23;;;;;;;0.47;0.47;;;17.70;49.50;19.80;94319.00;;;;10478432;28;45789;-61
2022/05/14 06:21:46;;;;;;;0.80;0.60;;;17.70;49.40;19.80;94313.00;;;;10476325;28;45886;-61
2022/05/14 06:27:07;;;;;;;0.57;0.40;;;17.70;49.40;19.80;94333.00;;;;10454158;28;45269;-62
2022/05/14 06:32:27;;;;;;;1.13;0.70;;;17.70;49.40;19.80;94331.00;;;;10455779;28;45373;-61
2022/05/14 06:37:49;;;;;;;0.68;0.52;;;17.70;49.40;19.80;94336.00;;;;10477752;28;45811;-61
2022/05/14 06:43:10;;;;;;;0.40;0.40;;;17.70;49.30;19.80;94327.00;;;;10477768;28;46060;-61
2022/05/14 06:48:32;;;;;;;0.70;0.50;;;17.80;49.40;19.80;94339.00;;;;10477503;28;45175;-61
2022/05/14 06:53:57;;;;;;;0.45;0.45;;;17.70;49.30;19.80;94339.00;;;;10477631;28;45192;-61
2022/05/14 06:59:17;;;;;;;0.40;0.40;;;17.80;49.30;19.80;94344.00;;;;10477328;28;45806;-61
2022/05/14 07:10:18;;;;;;;0.60;0.40;;;17.80;49.20;19.90;94348.00;;;;10476679;28;45792;-61
2022/05/14 07:15:38;;;;;;;0.70;0.40;;;17.80;49.20;19.80;94334.00;;;;10476496;28;45180;-61
2022/05/14 07:20:59;;;;;;;0.32;0.32;;;17.80;49.10;19.90;94350.00;;;;10477042;28;45305;-62
2022/05/14 07:26:21;;;;;;;0.85;0.50;;;17.80;49.10;19.90;94340.00;;;;10476128;28;45203;-61
2022/05/14 07:31:42;;;;;;;1.05;0.50;;;17.80;49.10;19.90;94335.00;;;;10477197;28;45362;-62
2022/05/14 07:37:07;;;;;;;0.65;0.40;;;17.80;49.10;19.90;94339.00;;;;10476854;28;45080;-61
2022/05/14 07:42:34;;;;;;;0.55;0.40;;;17.80;49.00;19.90;94358.00;;;;10477056;28;45237;-61
2022/05/14 07:47:56;;;;;;;0.67;0.40;;;17.80;49.00;19.90;94351.00;;;;10476167;28;45767;-61
2022/05/14 07:53:19;;;;;;;0.90;0.50;;;17.80;48.90;19.90;94353.00;;;;10479844;28;45885;-61
2022/05/14 07:58:43;;;;;;;0.63;0.40;;;17.80;48.90;19.90;94342.00;;;;10483616;28;45181;-73
2022/05/14 08:04:03;;;;;;;1.90;0.40;;;17.80;48.80;19.90;94332.00;;;;10483196;28;45870;-62
2022/05/14 08:09:24;;;;;;;1.75;0.57;;;17.80;49.30;19.90;94350.00;;;;10483273;28;45683;-62
2022/05/14 08:14:46;;;;;;;1.13;0.50;;;17.80;49.20;19.90;94350.00;;;;10483111;28;45143;-63
2022/05/14 08:20:09;;;;;;;2.33;0.65;;;17.90;49.20;19.90;94358.00;;;;10482667;28;45307;-63
2022/05/14 08:25:30;;;;;;;0.80;0.40;;;17.90;49.10;19.90;94341.00;;;;10482073;28;45213;-63
2022/05/14 08:30:51;;;;;;;0.50;0.40;;;17.90;49.10;19.90;94329.00;;;;10482498;28;45868;-63
2022/05/14 08:36:12;;;;;;;1.40;0.57;;;17.90;49.10;19.90;94330.00;;;;10482027;28;45145;-63
2022/05/14 08:41:37;;;;;;;1.08;0.50;;;17.80;49.00;19.90;94317.00;;;;10482066;28;45130;-63
2022/05/14 08:47:05;;;;;;;2.45;0.55;;;17.80;49.00;19.80;94320.00;;;;10482227;28;46034;-63
2022/05/14 08:52:28;;;;;;;0.70;0.52;;;17.80;49.00;19.90;94325.00;;;;10481660;28;45126;-62
2022/05/14 08:58:02;;;;;;;0.82;0.50;;;17.80;49.00;19.80;94318.00;;;;10481579;28;45167;-63
2022/05/14 09:03:24;;;;;;;3.25;0.70;;;17.80;49.00;19.80;94349.00;;;;10481543;28;45143;-63
2022/05/14 09:08:45;;;;;;;0.88;0.57;;;17.70;48.90;19.80;94345.00;;;;10481835;28;45106;-63
2022/05/14 09:14:20;;;;;;;1.23;0.50;;;17.70;48.90;19.80;94338.00;;;;10481406;28;45090;-61
2022/05/14 09:19:45;;;;;;;1.02;0.57;;;17.70;48.90;19.80;94343.00;;;;10480460;28;45118;-61
2022/05/14 09:25:21;;;;;;;2.10;0.68;;;17.70;48.90;19.70;94326.00;;;;10481195;28;45439;-61
2022/05/14 09:30:46;;;;;;;1.45;0.73;;;17.70;49.10;19.70;94320.00;;;;10480988;28;45704;-61
2022/05/14 09:36:16;;;;;;;1.45;0.70;;;17.60;49.20;19.70;94331.00;;;;10480852;28;45873;-61
2022/05/14 09:41:44;;;;;;;2.40;0.70;;;17.70;49.30;19.60;94327.00;;;;10478702;28;45215;-61
2022/05/14 09:47:12;;;;;;;1.48;0.60;;;17.60;49.60;19.70;94321.00;;;;10478641;28;45216;-62
2022/05/14 09:52:37;;;;;;;2.08;0.57;;;17.60;49.30;19.60;94324.00;;;;10459527;28;45167;-62
2022/05/14 09:58:04;;;;;;;1.92;0.60;;;17.60;49.50;19.60;94325.00;;;;10432912;28;45224;-63
2022/05/14 10:03:36;;;;;;;;;;;17.60;49.70;19.60;94323.00;;;;10438022;28;45851;-61
2022/05/14 10:09:16;;;;;;;1.88;0.70;;;17.50;49.60;19.60;94305.00;;;;10472979;28;45233;-63
2022/05/14 10:14:54;;;;;;;1.15;0.70;;;17.50;49.70;19.50;94315.00;;;;10474661;28;45230;-62
2022/05/14 10:20:30;;;;;;;1.10;0.60;;;17.50;50.50;19.60;94310.00;;;;10440657;28;45198;-62
2022/05/14 10:31:45;;;;;;;1.83;0.70;;;17.50;49.80;19.60;94318.00;;;;10437245;28;45791;-61
2022/05/14 10:37:15;;;;;;;1.75;0.57;;;17.50;49.80;19.50;94309.00;;;;10436924;28;45144;-61
2022/05/14 10:42:47;;;;;;;1.75;0.57;;;17.50;50.10;19.50;94319.00;;;;10437107;28;45105;-62
2022/05/14 10:48:22;;;;;;;2.28;0.70;;;17.50;50.00;19.50;94311.00;;;;10436423;28;45324;-62
2022/05/14 10:53:44;;;;;;;1.05;0.60;;;17.50;50.00;19.50;94313.00;;;;10441977;28;45575;-61
2022/05/14 10:59:09;;;;;;;0.85;0.60;;;17.50;49.90;19.50;94299.00;;;;10432855;28;45154;-61
2022/05/14 11:04:32;;;;;;;0.93;0.60;;;17.50;50.00;19.50;94290.00;;;;10433453;28;45354;-63
2022/05/14 11:09:53;;;;;;;1.23;0.70;;;17.50;50.30;19.50;94295.00;;;;10431582;28;45408;-64
2022/05/14 11:15:25;;;;;;;1.45;0.73;;;17.50;50.90;19.50;94284.00;;;;10435613;28;45107;-62
2022/05/14 11:20:56;;;;;;;2.25;0.70;;;17.50;50.90;19.50;94282.00;;;;10464253;28;45149;-61
2022/05/14 11:26:18;;;;;;;0.93;0.60;;;17.50;51.10;19.50;94268.00;;;;10436423;28;45160;-62
2022/05/14 11:31:54;;;;;;;1.52;0.70;;;17.50;51.10;19.50;94282.00;;;;10458332;28;45203;-62
2022/05/14 11:37:30;;;;;;;1.15;0.70;;;17.50;51.20;19.50;94282.00;;;;10442511;28;45827;-61
2022/05/14 11:42:53;;;;;;;0.82;0.50;;;17.50;51.20;19.50;94275.00;;;;10442829;28;45189;-61
2022/05/14 11:48:22;;;;;;;2.45;0.70;;;17.50;51.10;19.50;94276.00;;;;10442325;28;45178;-61
2022/05/14 11:53:48;;;;;;;1.00;0.50;;;17.50;51.30;19.50;94274.00;;;;10442221;28;45767;-61
2022/05/14 11:59:18;;;;;;;0.90;0.75;;;17.50;51.00;19.50;94255.00;;;;10442072;28;45189;-61
2022/05/14 12:04:46;;;;;;;2.25;0.70;;;17.40;51.70;19.50;94267.00;;;;10449038;22;45185;-62
2022/05/14 12:10:21;;;;;;;1.23;0.70;;;17.50;52.00;19.50;94259.00;;;;10399575;28;45767;-61
2022/05/14 12:15:48;;;;;;;1.33;0.50;;;17.50;51.00;19.50;94256.00;;;;10398640;28;45205;-61
2022/05/14 12:21:10;;;;;;;1.10;0.50;;;17.50;51.20;19.60;94248.00;;;;10398869;28;45922;-62
2022/05/14 12:26:35;;;;;;;1.10;0.60;;;17.50;51.00;19.60;94243.00;;;;10398294;28;45176;-61
2022/05/14 12:37:43;;;;;;;1.42;0.73;;;17.60;50.80;19.70;94242.00;;;;10397825;28;45770;-61
2022/05/14 12:43:07;;;;;;;1.63;0.75;;;17.60;50.90;19.70;94239.00;;;;10398656;28;45852;-62
2022/05/14 12:48:30;;;;;;;1.27;0.60;;;17.60;50.70;19.70;94232.00;;;;10399494;28;45811;-61
2022/05/14 12:53:53;;;;;;;3.38;0.70;;;17.60;51.20;19.70;94215.00;;;;10397924;28;45872;-59
2022/05/14 12:59:14;;;;;;;1.30;0.70;;;17.60;51.40;19.80;94223.00;;;;10399713;28;45185;-60
2022/05/14 13:04:40;;;;;;;0.90;0.70;;;17.70;51.10;19.80;94225.00;;;;10397365;28;45919;-60
2022/05/14 13:10:03;;;;;;;1.55;0.80;;;17.70;51.40;19.80;94212.00;;;;10398161;28;45775;-61
2022/05/14 13:15:33;;;;;;;1.92;0.73;;;17.70;51.10;19.80;94210.00;;;;10392724;28;45276;-60
2022/05/14 13:21:00;;;;;;;1.95;0.90;;;17.70;51.60;19.80;94208.00;;;;10365882;28;45249;-60
2022/05/14 13:26:32;;;;;;;1.67;0.93;;;17.70;51.70;19.90;94188.00;;;;10369717;28;45805;-60
2022/05/14 13:32:08;;;;;;;1.40;0.65;;;17.80;51.70;19.80;94179.00;;;;10389844;28;45257;-61
2022/05/14 13:37:35;;;;;;;0.90;0.60;;;17.80;51.80;19.80;94188.00;;;;10397777;28;45212;-60
2022/05/14 13:43:04;;;;;;;1.02;0.82;;;17.80;51.70;19.80;94177.00;;;;10397235;28;45153;-62
2022/05/14 13:48:35;;;;;;;2.35;0.88;;;17.80;51.80;19.80;94167.00;;;;10395297;28;45212;-60
2022/05/14 13:54:10;;;;;;;2.42;1.00;;;17.80;52.00;19.80;94154.00;;;;10398208;28;46203;-60
2022/05/14 13:59:34;;;;;;;2.08;0.90;;;17.80;51.80;19.90;94160.00;;;;10396743;28;45151;-60
2022/05/14 14:04:59;;;;;;;1.83;1.10;;;17.90;51.70;19.80;94151.00;;;;10397417;28;45108;-60
2022/05/14 14:10:33;;;;;;;1.55;0.77;;;17.80;51.40;19.80;94149.00;;;;10396133;28;45175;-60
2022/05/14 14:15:55;;;;;;;1.85;0.98;;;17.80;51.50;19.90;94147.00;;;;10390715;28;45779;-60
2022/05/14 14:21:17;;;;;;;2.53;0.80;;;17.80;51.40;19.90;94127.00;;;;10397294;28;45109;-60
2022/05/14 14:26:38;;;;;;;2.42;0.90;;;17.80;51.40;19.90;94132.00;;;;10395141;28;45135;-60
2022/05/14 14:32:00;;;;;;;1.45;0.80;;;17.80;51.20;19.90;94112.00;;;;10396731;28;46021;-60
2022/05/14 14:37:21;;;;;;;2.15;1.10;;;17.90;51.30;19.90;94123.00;;;;10395131;28;45764;-61
2022/05/14 14:42:43;;;;;;;1.65;1.10;;;17.90;51.20;19.90;94122.00;;;;10395651;28;45859;-61
2022/05/14 14:48:07;;;;;;;2.17;0.90;;;17.90;51.00;19.90;94120.00;;;;10395318;28;45281;-60
2022/05/14 14:53:28;;;;;;;2.28;0.80;;;17.90;51.60;20.00;94100.00;;;;10394405;28;45232;-60
2022/05/14 14:58:49;;;;;;;1.33;0.70;;;17.90;50.90;20.00;94112.00;;;;10395220;28;45887;-60
2022/05/14 15:04:16;;;;;;;1.73;0.80;;;17.90;50.80;20.00;94104.00;;;;10393383;28;45507;-60
2022/05/14 15:09:37;;;;;;;;;;;18.00;50.80;20.00;94112.00;;;;10394831;28;45141;-60
2022/05/14 15:14:57;;;;;;;2.78;1.13;;;18.00;50.80;20.00;94103.00;;;;10394149;28;45130;-60
2022/05/14 15:20:21;;;;;;;1.00;0.70;;;18.00;50.70;20.00;94096.00;;;;10394778;28;45101;-60
2022/05/14 15:25:42;;;;;;;2.03;0.80;;;18.00;50.60;20.00;94102.00;;;;10393688;28;45235;-60
2022/05/14 15:31:10;;;;;;;1.17;0.80;;;18.00;50.60;20.00;94093.00;;;;10394149;28;45218;-60
2022/05/14 15:36:32;;;;;;;1.30;0.80;;;18.00;50.50;20.10;94104.00;;;;10394160;28;45400;-60
2022/05/14 15:42:00;;;;;;;2.10;0.98;;;18.00;50.30;20.10;94099.00;;;;10395450;28;45871;-60
2022/05/14 15:47:25;;;;;;;1.95;1.00;;;18.10;50.40;20.10;94082.00;;;;10372769;28;45681;-60
2022/05/14 15:52:49;;;;;;;1.20;0.80;;;18.10;50.40;20.10;94084.00;;;;10370316;28;45256;-61
2022/05/14 15:58:10;;;;;;;1.48;0.90;;;18.10;50.10;20.20;94081.00;;;;10390948;28;45195;-60
2022/05/14 16:03:31;;;;;;;1.10;0.70;;;18.10;50.00;20.20;94088.00;;;;10393970;28;45110;-61
2022/05/14 16:08:53;;;;;;;1.33;0.90;;;18.20;50.00;20.20;94085.00;;;;10393705;28;45805;-61
2022/05/14 16:19:52;;;;;;;0.90;0.60;;;18.20;49.80;20.20;94092.00;;;;10400150;28;45272;-61
2022/05/14 16:25:14;;;;;;;0.68;0.60;;;18.20;49.80;20.20;94090.00;;;;10399410;28;45716;-61
2022/05/14 16:30:34;;;;;;;1.08;0.73;;;18.20;49.80;20.20;94089.00;;;;10385676;28;45829;-62
2022/05/14 16:35:55;;;;;;;1.05;0.68;;;18.20;49.80;20.30;94093.00;;;;10381591;28;45713;-60
2022/05/14 16:41:17;;;;;;;0.95;0.60;;;18.20;49.70;20.30;94090.00;;;;10397865;28;45283;-60
2022/05/14 16:46:38;;;;;;;1.45;0.80;;;18.20;49.70;20.30;94101.00;;;;10391162;28;45209;-60
2022/05/14 16:51:58;;;;;;;1.52;0.80;;;18.20;49.60;20.30;94095.00;;;;10392607;28;45810;-60
2022/05/14 16:57:20;;;;;;;0.73;0.55;;;18.20;49.50;20.30;94097.00;;;;10395906;28;45148;-63
2022/05/14 17:02:41;;;;;;;1.08;0.77;;;18.30;49.50;20.30;94088.00;;;;10395816;28;45198;-60
2022/05/14 17:08:02;;;;;;;2.10;0.70;;;18.30;49.60;20.30;94100.00;;;;10397094;28;45747;-61
2022/05/14 17:13:24;;;;;;;1.73;0.70;;;18.20;49.50;20.30;94096.00;;;;10398254;28;45170;-60
2022/05/14 17:18:46;;;;;;;1.00;0.68;;;18.20;49.50;20.20;94096.00;;;;10397907;28;45182;-60
2022/05/14 17:24:08;;;;;;;1.30;0.70;;;18.20;49.60;20.20;94097.00;;;;10398242;28;45417;-61
2022/05/14 17:29:30;;;;;;;1.70;0.75;;;18.20;49.80;20.20;94090.00;;;;10397256;28;45860;-62
2022/05/14 17:34:52;;;;;;;1.00;0.60;;;18.20;49.80;20.20;94087.00;;;;10396861;28;45896;-60
2022/05/14 17:40:14;;;;;;;0.63;0.60;;;18.10;49.60;20.20;94081.00;;;;10397505;28;45245;-61
2022/05/14 17:45:36;;;;;;;0.90;0.70;;;18.10;49.70;20.20;94094.00;;;;10397311;28;45260;-61
2022/05/14 17:50:59;;;;;;;1.23;0.70;;;18.10;49.60;20.10;94077.00;;;;10378317;28;45398;-62
2022/05/14 17:56:19;;;;;;;1.45;0.60;;;18.10;49.70;20.10;94093.00;;;;10355847;28;45127;-62
2022/05/14 18:01:41;;;;;;;1.20;0.73;;;18.00;49.80;20.10;94101.00;;;;10382980;28;45773;-61
2022/05/14 18:07:02;;;;;;;0.70;0.50;;;18.00;49.70;20.10;94090.00;;;;10394247;28;45210;-61
2022/05/14 18:12:23;;;;;;;1.08;0.60;;;18.00;49.80;20.00;94097.00;;;;10406368;28;45175;-61
2022/05/14 18:17:45;;;;;;;0.80;0.70;;;18.00;49.80;20.00;94088.00;;;;10404971;28;45173;-61
2022/05/14 18:23:06;;;;;;;1.02;0.50;;;17.90;49.70;20.00;94085.00;;;;10405508;28;45228;-61
2022/05/14 18:28:30;;;;;;;1.85;0.60;;;17.90;49.70;19.90;94094.00;;;;10403805;28;45241;-62
2022/05/14 18:33:59;;;;;;;0.90;0.60;;;17.90;49.60;19.90;94099.00;;;;10403105;28;45138;-61
2022/05/14 18:39:19;;;;;;;1.40;0.70;;;17.90;49.60;19.90;94107.00;;;;10403495;28;45172;-61
2022/05/14 18:44:45;;;;;;;0.65;0.60;;;17.80;49.50;19.90;94094.00;;;;10403627;28;45062;-60
2022/05/14 18:50:09;;;;;;;1.08;0.60;;;17.80;49.40;19.90;94099.00;;;;10402861;28;45232;-61
2022/05/14 18:55:30;;;;;;;1.02;0.70;;;17.80;49.30;19.80;94102.00;;;;10402546;28;45153;-61
2022/05/14 19:00:51;;;;;;;2.15;0.60;;;17.80;49.30;19.80;94109.00;;;;10403987;28;45161;-61
2022/05/14 19:11:56;;;;;;;2.85;0.70;;;17.70;49.10;19.80;94118.00;;;;10396756;28;45180;-61
2022/05/14 19:17:20;;;;;;;0.55;0.55;;;17.70;49.10;19.70;94102.00;;;;10403015;28;45173;-60
2022/05/14 19:22:42;;;;;;;1.80;0.90;;;17.70;48.90;19.70;94119.00;;;;10402833;28;45138;-60
2022/05/14 19:28:04;;;;;;;1.25;0.85;;;17.60;48.90;19.70;94122.00;;;;10403141;28;45328;-61
2022/05/14 19:33:25;;;;;;;1.15;0.60;;;17.60;48.80;19.70;94136.00;;;;10402411;28;45188;-61
2022/05/14 19:38:50;;;;;;;1.08;0.80;;;17.60;48.80;19.70;94139.00;;;;10401137;28;45774;-60
2022/05/14 19:44:14;;;;;;;2.08;1.00;;;17.60;48.80;19.70;94139.00;;;;10401020;28;45338;-60
2022/05/14 19:49:38;;;;;;;1.45;0.73;;;17.60;48.70;19.70;94146.00;;;;10407130;28;45138;-61
2022/05/14 19:55:00;;;;;;;1.33;1.00;;;17.60;48.70;19.60;94149.00;;;;10409292;28;45125;-61
2022/05/14 20:00:21;;;;;;;1.60;1.00;;;17.60;48.70;19.60;94152.00;;;;10409364;28;45119;-60
2022/05/14 20:05:45;;;;;;;2.78;1.50;;;17.60;48.70;19.60;94154.00;;;;10407806;28;45388;-60
2022/05/14 20:11:07;;;;;;;2.30;1.45;;;17.60;48.60;19.60;94140.00;;;;10407280;28;45863;-61
2022/05/14 20:22:06;;;;;;;2.25;1.20;;;17.50;48.50;19.60;94142.00;;;;10407377;28;45220;-60
2022/05/14 20:27:28;;;;;;;2.45;1.30;;;17.50;48.50;19.50;94140.00;;;;10406878;28;45198;-60
2022/05/14 20:32:49;;;;;;;2.50;1.00;;;17.50;48.40;19.50;94131.00;;;;10405964;28;45066;-61
2022/05/14 20:38:11;;;;;;;1.75;1.05;;;17.50;48.40;19.50;94158.00;;;;10405998;28;45146;-60
2022/05/14 20:43:33;;;;;;;1.48;1.00;;;17.40;48.40;19.50;94159.00;;;;10405997;28;45677;-60
2022/05/14 20:48:55;;;;;;;2.28;0.95;;;17.40;48.40;19.50;94169.00;;;;10405080;28;45272;-61
2022/05/14 20:54:15;;;;;;;1.67;1.15;;;17.40;48.40;19.50;94164.00;;;;10405073;28;45201;-60
2022/05/14 20:59:38;;;;;;;2.08;1.10;;;17.40;48.40;19.50;94169.00;;;;10406530;28;45200;-60
2022/05/14 21:04:58;;;;;;;1.65;1.08;;;17.40;48.40;19.50;94150.00;;;;10397948;28;45299;-60
2022/05/14 21:10:22;;;;;;;1.65;0.90;;;17.40;48.60;19.50;94158.00;;;;10398426;28;45128;-61
2022/05/14 21:15:44;;;;;;;1.83;1.10;;;17.40;48.60;19.40;94153.00;;;;10398808;28;45170;-61
2022/05/14 21:21:05;;;;;;;1.92;1.00;;;17.40;48.70;19.40;94153.00;;;;10398182;28;45182;-60
2022/05/14 21:26:25;;;;;;;1.50;0.93;;;17.40;48.70;19.40;94140.00;;;;10397236;28;45237;-61
2022/05/14 21:31:47;;;;;;;1.45;0.90;;;17.40;48.70;19.40;94147.00;;;;10398339;28;45755;-61
2022/05/14 21:42:49;;;;;;;1.30;0.80;;;17.30;48.80;19.40;94140.00;;;;10398202;28;45121;-63
2022/05/14 21:48:12;;;;;;;1.65;0.90;;;17.30;48.90;19.40;94135.00;;;;10396817;28;45173;-61
2022/05/14 21:53:33;;;;;;;1.00;0.80;;;17.40;49.00;19.40;94126.00;;;;10396941;28;46495;-61
2022/05/14 21:58:53;;;;;;;0.85;0.80;;;17.30;49.00;19.40;94136.00;;;;10396301;28;45768;-61
2022/05/14 22:04:15;;;;;;;1.10;0.80;;;17.30;49.00;19.40;94125.00;;;;10396017;28;45464;-61
2022/05/14 22:09:36;;;;;;;1.35;0.88;;;17.30;49.00;19.40;94133.00;;;;10395771;28;45175;-61
2022/05/14 22:14:56;;;;;;;1.08;0.90;;;17.30;49.00;19.40;94125.00;;;;10396498;28;45864;-61
2022/05/14 22:20:22;;;;;;;1.48;0.85;;;17.30;49.00;19.40;94122.00;;;;10396508;28;45988;-61
2022/05/14 22:25:43;;;;;;;1.40;0.80;;;17.30;49.00;19.40;94122.00;;;;10395373;28;45853;-61
2022/05/14 22:31:04;;;;;;;1.23;0.90;;;17.30;49.10;19.40;94122.00;;;;10396251;28;45764;-60
2022/05/14 22:36:26;;;;;;;1.33;0.68;;;17.30;49.10;19.40;94129.00;;;;10395819;28;45136;-60
2022/05/14 22:41:46;;;;;;;1.60;1.02;;;17.30;49.10;19.30;94128.00;;;;10395606;28;45174;-61
2022/05/14 22:47:07;;;;;;;1.13;0.80;;;17.30;49.10;19.30;94114.00;;;;10395294;28;45251;-61
2022/05/14 22:52:29;;;;;;;1.42;0.88;;;17.30;49.10;19.30;94126.00;;;;10395895;28;45187;-61
2022/05/14 22:57:49;;;;;;;1.15;0.70;;;17.30;49.10;19.30;94113.00;;;;10395103;28;45160;-60
2022/05/14 23:03:11;;;;;;;0.95;0.80;;;17.20;49.10;19.30;94113.00;;;;10395420;28;45179;-61
2022/05/14 23:08:34;;;;;;;1.75;0.70;;;17.20;49.20;19.30;94112.00;;;;10394166;28;45074;-62
2022/05/14 23:13:54;;;;;;;1.30;0.80;;;17.20;49.20;19.30;94106.00;;;;10394988;28;45113;-61
2022/05/14 23:19:14;;;;;;;1.35;0.85;;;17.20;49.20;19.30;94111.00;;;;10395087;28;45179;-61
2022/05/14 23:24:37;;;;;;;1.15;0.80;;;17.20;49.20;19.30;94118.00;;;;10400695;28;45767;-61
2022/05/14 23:29:57;;;;;;;2.78;0.85;;;17.20;49.20;19.30;94121.00;;;;10402110;28;45457;-60
2022/05/14 23:35:21;;;;;;;1.48;0.80;;;17.20;49.20;19.30;94114.00;;;;10403053;28;45436;-61
2022/05/14 23:40:43;;;;;;;1.63;0.60;;;17.20;49.30;19.30;94114.00;;;;10401838;28;45334;-61
2022/05/14 23:46:03;;;;;;;1.20;0.80;;;17.20;49.20;19.20;94100.00;;;;10401242;28;45128;-61
2022/05/14 23:51:24;;;;;;;1.23;0.70;;;17.20;49.20;19.20;94095.00;;;;10401405;28;45125;-61
2022/05/14 23:56:46;;;;;;;1.08;0.80;;;17.20;49.20;19.20;94087.00;;;;10400610;28;45197;-61
